Syracuse, IN

10:14 AM EDT on September 29, 2016 (GMT -0400)
APRSWXNET | | Change Station

Elev 951 ft 41.36 °N, 85.70 °W | Updated 26 minutes ago

Overcast
Overcast
58 °F
Feels Like 58 °F
N
4
Wind Variable Wind from NE
Gusts 12.0 mph

Today
High -- | Low -- °F
--% Chance of Precip.
Yesterday
High -- | Low -- °F
Precip. -- in
Pressure 30.09 in
Visibility 10.0 miles
Clouds Mostly Cloudy 1000 ft
Mostly Cloudy 3500 ft
Overcast 4100 ft
Dew Point 57 °F
Humidity 96%
Rainfall in
Snow Depth Not available.
7:37 AM 7:27 PM
Waning Crescent, 2% visible
METAR KASW 291355Z AUTO 07007KT 10SM BKN010 BKN035 OVC041 15/11 A3009 RMK AO2
Pressure 30.09 in
Visibility 10.0 miles
Clouds Mostly Cloudy 1000 ft
Mostly Cloudy 3500 ft
Overcast 4100 ft
Dew Point 57 °F
Humidity 96%
Rainfall in
Snow Depth Not available.
7:37 AM 7:27 PM
Waning Crescent, 2% visible
METAR KASW 291355Z AUTO 07007KT 10SM BKN010 BKN035 OVC041 15/11 A3009 RMK AO2

10-Day Weather Forecast

Almanac

Astronomy

Sep. 29, 2016 Rise Set
Actual Time
Civil Twilight
Nautical Twilight
Astronomical Twilight
Moon
Length of Visible Light
Length of Day
Tomorrow will be .
, % of the Moon is Illuminated

Today's Extremes

State Highs State Lows

Community

WunderPhotos

Upload Photos

1,942,479 photos uploaded!

WunderBlog® & News

Nearby

Air Quality

  Air Quality AQ Index Pollutant
Not available.

Snow Depth

Station Depth Elevation

Earthquake Activity

City Distance Mag. Time & Date
Minimum magnitude displayed is 2.5.

Coastal Water Temperatures

Place Temperature

Stations

Nearby Weather Stations

Station Location Temp. Windchill Dew Point Humidity Wind Precip. Elev Updated Type
                   

Watches & Warnings

There are currently no watches in effect.